Time;durP1;ratioP1;P1;durP2;ratioP2;P2;SDS_P1;SDS_P2;PMS_P1;PMS_P2;Temp;Humidity;BMP_temperature;BMP_pressure;BME280_temperature;BME280_humidity;BME280_pressure;Samples;Min_cycle;Max_cycle;Signal;HPM_P1;HPM_P2
2023/05/28 00:01:27;;;;;;;15.18;5.93;;;;;;;;;;5028596;28;20473;-66
2023/05/28 00:03:52;;;;;;;13.60;5.80;;;;;;;;;;5024198;28;20013;-67
2023/05/28 00:06:17;;;;;;;12.93;6.35;;;;;;;;;;5027721;28;20156;-67
2023/05/28 00:08:42;;;;;;;15.95;6.45;;;;;;;;;;5011273;28;20409;-67
2023/05/28 00:11:07;;;;;;;14.75;6.40;;;;;;;;;;5024239;28;20021;-66
2023/05/28 00:13:33;;;;;;;13.27;6.20;;;;;;;;;;5026069;28;20026;-66
2023/05/28 00:15:58;;;;;;;14.70;6.28;;;;;;;;;;5021904;28;20022;-66
2023/05/28 00:18:23;;;;;;;15.50;6.10;;;;;;;;;;5023372;28;20022;-66
2023/05/28 00:20:48;;;;;;;11.45;6.25;;;;;;;;;;5019956;28;20013;-66
2023/05/28 00:23:14;;;;;;;13.65;6.47;;;;;;;;;;5025570;28;20087;-66
2023/05/28 00:25:39;;;;;;;13.68;6.07;;;;;;;;;;5027997;28;20496;-67
2023/05/28 00:28:04;;;;;;;15.63;6.38;;;;;;;;;;5030925;28;20044;-67
2023/05/28 00:30:30;;;;;;;13.47;6.10;;;;;;;;;;5023320;28;20037;-67
2023/05/28 00:32:55;;;;;;;16.13;6.13;;;;;;;;;;5028338;28;20045;-67
2023/05/28 00:35:20;;;;;;;13.82;6.05;;;;;;;;;;5028463;28;20507;-67
2023/05/28 00:37:45;;;;;;;12.13;5.87;;;;;;;;;;5024626;28;20080;-66
2023/05/28 00:40:11;;;;;;;13.43;6.18;;;;;;;;;;5016083;28;20032;-68
2023/05/28 00:42:36;;;;;;;15.18;6.05;;;;;;;;;;5019660;28;20477;-67
2023/05/28 00:45:02;;;;;;;15.27;5.70;;;;;;;;;;5025423;28;20057;-68
2023/05/28 00:47:27;;;;;;;15.32;6.00;;;;;;;;;;5024886;28;20115;-67
2023/05/28 00:49:55;;;;;;;12.00;5.72;;;;;;;;;;5024569;28;20048;-66
2023/05/28 00:52:21;;;;;;;14.18;5.43;;;;;;;;;;5028242;28;20075;-67
2023/05/28 00:54:46;;;;;;;13.43;6.00;;;;;;;;;;5020788;28;20021;-68
2023/05/28 00:57:12;;;;;;;13.47;5.23;;;;;;;;;;5029283;28;20029;-69
2023/05/28 00:59:37;;;;;;;13.82;5.57;;;;;;;;;;5024799;28;20175;-67
2023/05/28 01:02:02;;;;;;;12.00;5.50;;;;;;;;;;5023420;28;20707;-67
2023/05/28 01:04:34;;;;;;;13.43;5.28;;;;;;;;;;5022959;28;20087;-67
2023/05/28 01:06:59;;;;;;;14.57;5.30;;;;;;;;;;5025591;28;20025;-67
2023/05/28 01:09:25;;;;;;;12.90;5.03;;;;;;;;;;5020833;28;20021;-67
2023/05/28 01:11:52;;;;;;;11.15;4.88;;;;;;;;;;5021453;28;20029;-66
2023/05/28 01:14:18;;;;;;;11.63;5.28;;;;;;;;;;5022030;28;20060;-67
2023/05/28 01:16:44;;;;;;;10.10;4.40;;;;;;;;;;5034343;28;20017;-66
2023/05/28 01:19:11;;;;;;;11.57;4.80;;;;;;;;;;5025955;28;20029;-66
2023/05/28 01:21:41;;;;;;;10.85;4.40;;;;;;;;;;5023190;28;20013;-66
2023/05/28 01:24:06;;;;;;;9.63;4.47;;;;;;;;;;5025991;28;20128;-67
2023/05/28 01:26:31;;;;;;;9.18;4.18;;;;;;;;;;5018567;28;20060;-67
2023/05/28 01:28:57;;;;;;;11.80;4.90;;;;;;;;;;5015745;28;20022;-66
2023/05/28 01:31:22;;;;;;;10.98;4.65;;;;;;;;;;5021938;28;20029;-66
2023/05/28 01:33:47;;;;;;;11.43;4.35;;;;;;;;;;5033382;28;20091;-67
2023/05/28 01:36:16;;;;;;;12.25;4.47;;;;;;;;;;5021761;28;20024;-65
2023/05/28 01:38:43;;;;;;;9.70;4.47;;;;;;;;;;5021348;28;20571;-65
2023/05/28 01:41:08;;;;;;;;;;;;;;;;;;5025337;28;20477;-66
2023/05/28 01:43:33;;;;;;;9.68;3.97;;;;;;;;;;5023176;28;20007;-67
2023/05/28 01:45:59;;;;;;;11.10;4.15;;;;;;;;;;5024439;28;20436;-66
2023/05/28 01:48:24;;;;;;;12.18;4.28;;;;;;;;;;5025190;28;20060;-67
2023/05/28 01:50:51;;;;;;;12.98;5.78;;;;;;;;;;5028273;28;20506;-66
2023/05/28 01:53:16;;;;;;;11.63;4.47;;;;;;;;;;5025543;28;20017;-65
2023/05/28 01:55:41;;;;;;;11.48;4.40;;;;;;;;;;5031206;28;20511;-67
2023/05/28 01:58:08;;;;;;;13.15;4.45;;;;;;;;;;5027954;28;20030;-65
2023/05/28 02:00:33;;;;;;;;;;;;;;;;;;5025100;28;20404;-67
2023/05/28 02:02:58;;;;;;;11.85;4.40;;;;;;;;;;5025883;28;20451;-69
2023/05/28 02:05:23;;;;;;;12.27;4.30;;;;;;;;;;5031479;28;20028;-67
2023/05/28 02:07:48;;;;;;;10.20;4.60;;;;;;;;;;5032525;28;20092;-65
2023/05/28 02:10:14;;;;;;;11.23;4.60;;;;;;;;;;5031986;28;20020;-67
2023/05/28 02:12:39;;;;;;;10.75;4.70;;;;;;;;;;5035608;28;20022;-68
2023/05/28 02:15:05;;;;;;;11.50;4.80;;;;;;;;;;5034182;28;20025;-68
2023/05/28 02:17:30;;;;;;;12.98;5.18;;;;;;;;;;5033549;28;20467;-68
2023/05/28 02:19:56;;;;;;;10.35;4.60;;;;;;;;;;5026277;28;20028;-68
2023/05/28 02:22:21;;;;;;;11.18;4.30;;;;;;;;;;5025930;28;20437;-68
2023/05/28 02:24:46;;;;;;;10.98;3.80;;;;;;;;;;5021375;28;20025;-67
2023/05/28 02:27:12;;;;;;;10.05;3.72;;;;;;;;;;5020061;28;20018;-68
2023/05/28 02:29:37;;;;;;;10.98;3.78;;;;;;;;;;5023832;28;20025;-68
2023/05/28 02:32:03;;;;;;;9.63;3.80;;;;;;;;;;5022556;28;20013;-67
2023/05/28 02:34:28;;;;;;;9.93;3.75;;;;;;;;;;5015243;28;20026;-67
2023/05/28 02:36:53;;;;;;;11.38;4.15;;;;;;;;;;5027939;28;20027;-67
2023/05/28 02:39:19;;;;;;;8.43;3.58;;;;;;;;;;5027288;28;20026;-68
2023/05/28 02:41:44;;;;;;;10.43;3.60;;;;;;;;;;5027621;28;20025;-67
2023/05/28 02:44:09;;;;;;;8.40;3.40;;;;;;;;;;5023513;28;20036;-67
2023/05/28 02:46:34;;;;;;;9.40;3.73;;;;;;;;;;5025846;28;20053;-67
2023/05/28 02:48:59;;;;;;;9.33;3.60;;;;;;;;;;5015755;28;20032;-67
2023/05/28 02:51:24;;;;;;;9.00;3.20;;;;;;;;;;5014216;28;20029;-67
2023/05/28 02:53:49;;;;;;;7.00;3.20;;;;;;;;;;5026006;28;20569;-68
2023/05/28 02:56:15;;;;;;;10.32;3.65;;;;;;;;;;5027024;28;20540;-68
2023/05/28 02:58:40;;;;;;;9.70;3.10;;;;;;;;;;5017288;28;20017;-67
2023/05/28 03:01:06;;;;;;;8.33;3.20;;;;;;;;;;5024995;28;20021;-66
2023/05/28 03:03:31;;;;;;;8.20;3.35;;;;;;;;;;5022751;28;20453;-66
2023/05/28 03:05:57;;;;;;;9.95;3.35;;;;;;;;;;5021636;28;20597;-66
2023/05/28 03:08:22;;;;;;;8.93;3.35;;;;;;;;;;5026805;28;20010;-67
2023/05/28 03:10:47;;;;;;;8.63;3.22;;;;;;;;;;5028032;28;20021;-67
2023/05/28 03:13:12;;;;;;;11.93;3.23;;;;;;;;;;5019237;28;20034;-67
2023/05/28 03:15:37;;;;;;;9.70;3.33;;;;;;;;;;5021676;28;20025;-66
2023/05/28 03:18:03;;;;;;;7.97;2.90;;;;;;;;;;5021802;28;20021;-66
2023/05/28 03:20:28;;;;;;;9.02;3.50;;;;;;;;;;5023190;28;20025;-66
2023/05/28 03:22:57;;;;;;;10.43;3.17;;;;;;;;;;5032494;28;20017;-66
2023/05/28 03:25:23;;;;;;;7.47;3.13;;;;;;;;;;5030883;28;20032;-67
2023/05/28 03:27:48;;;;;;;8.35;3.28;;;;;;;;;;5025884;28;20017;-67
2023/05/28 03:30:14;;;;;;;10.07;3.17;;;;;;;;;;5027936;28;20013;-67
2023/05/28 03:32:39;;;;;;;9.70;3.20;;;;;;;;;;5017094;28;20034;-67
2023/05/28 03:35:04;;;;;;;8.03;3.30;;;;;;;;;;5028746;28;20432;-67
2023/05/28 03:37:30;;;;;;;9.80;3.10;;;;;;;;;;5031941;28;20991;-67
2023/05/28 03:39:55;;;;;;;7.45;3.10;;;;;;;;;;5028295;28;20018;-67
2023/05/28 03:42:20;;;;;;;10.03;3.10;;;;;;;;;;5022144;28;20021;-67
2023/05/28 03:44:45;;;;;;;7.95;2.85;;;;;;;;;;5023871;28;20776;-66
2023/05/28 03:47:12;;;;;;;7.93;3.25;;;;;;;;;;5015312;28;20473;-67
2023/05/28 03:49:37;;;;;;;9.52;3.13;;;;;;;;;;5016544;28;20076;-67
2023/05/28 03:52:02;;;;;;;9.13;3.10;;;;;;;;;;5023128;28;20025;-67
2023/05/28 03:54:27;;;;;;;9.00;3.20;;;;;;;;;;5023388;28;20651;-68
2023/05/28 03:56:52;;;;;;;9.07;3.30;;;;;;;;;;5031436;28;20009;-67
2023/05/28 03:59:17;;;;;;;7.93;2.90;;;;;;;;;;5024925;28;20025;-67
2023/05/28 04:01:43;;;;;;;9.38;3.10;;;;;;;;;;5015796;28;20021;-68
2023/05/28 04:04:08;;;;;;;7.17;2.93;;;;;;;;;;5020008;28;20064;-65
2023/05/28 04:06:33;;;;;;;7.38;2.90;;;;;;;;;;5028997;28;20451;-66
2023/05/28 04:08:58;;;;;;;8.30;2.70;;;;;;;;;;5025661;28;20084;-67
2023/05/28 04:11:24;;;;;;;7.73;3.10;;;;;;;;;;5024164;28;20037;-66
2023/05/28 04:13:53;;;;;;;8.65;2.80;;;;;;;;;;5016988;28;20393;-67
2023/05/28 04:16:22;;;;;;;8.63;2.85;;;;;;;;;;5022245;28;20025;-65
2023/05/28 04:18:47;;;;;;;9.35;2.78;;;;;;;;;;5020946;28;20392;-65
2023/05/28 04:21:13;;;;;;;11.80;3.30;;;;;;;;;;5025854;28;20024;-65
2023/05/28 04:23:38;;;;;;;7.17;3.03;;;;;;;;;;5029860;28;20030;-65
2023/05/28 04:26:06;;;;;;;8.23;3.17;;;;;;;;;;5020587;28;20453;-65
2023/05/28 04:28:31;;;;;;;9.00;2.80;;;;;;;;;;5019487;28;20029;-66
2023/05/28 04:31:00;;;;;;;9.57;3.33;;;;;;;;;;5025464;28;20076;-67
2023/05/28 04:33:28;;;;;;;8.38;2.92;;;;;;;;;;5016879;28;20481;-67
2023/05/28 04:35:53;;;;;;;11.07;2.97;;;;;;;;;;5016915;28;20493;-67
2023/05/28 04:38:18;;;;;;;10.33;3.00;;;;;;;;;;5014956;28;20113;-68
2023/05/28 04:40:44;;;;;;;7.27;3.00;;;;;;;;;;5022570;28;20022;-66
2023/05/28 04:43:09;;;;;;;8.27;3.67;;;;;;;;;;5014930;28;20903;-67
2023/05/28 04:45:34;;;;;;;7.97;3.10;;;;;;;;;;5019324;28;20100;-67
2023/05/28 04:48:01;;;;;;;10.68;3.17;;;;;;;;;;5022953;28;20386;-67
2023/05/28 04:50:26;;;;;;;7.15;2.80;;;;;;;;;;5021139;28;20041;-66
2023/05/28 04:52:51;;;;;;;8.80;3.05;;;;;;;;;;5028617;28;20026;-66
2023/05/28 04:55:16;;;;;;;8.93;2.80;;;;;;;;;;5023596;28;20549;-65
2023/05/28 04:57:42;;;;;;;7.68;2.90;;;;;;;;;;5022112;28;20071;-66
2023/05/28 05:00:12;;;;;;;7.47;2.88;;;;;;;;;;5019773;28;20030;-66
2023/05/28 05:02:38;;;;;;;8.30;3.08;;;;;;;;;;5028877;28;20106;-66
2023/05/28 05:05:03;;;;;;;8.15;2.97;;;;;;;;;;5027425;28;20104;-67
2023/05/28 05:07:28;;;;;;;9.73;3.10;;;;;;;;;;5024488;28;20029;-66
2023/05/28 05:09:53;;;;;;;13.77;3.83;;;;;;;;;;5016297;28;20464;-66
2023/05/28 05:12:18;;;;;;;7.15;3.17;;;;;;;;;;5015625;28;20025;-66
2023/05/28 05:14:43;;;;;;;7.03;2.90;;;;;;;;;;5015319;28;20033;-66
2023/05/28 05:17:10;;;;;;;8.13;3.40;;;;;;;;;;5018316;28;20468;-67
2023/05/28 05:19:35;;;;;;;7.45;3.10;;;;;;;;;;5017915;28;20056;-67
2023/05/28 05:22:01;;;;;;;6.17;2.67;;;;;;;;;;5020619;28;20033;-66
2023/05/28 05:24:26;;;;;;;7.70;3.50;;;;;;;;;;5024105;28;20076;-66
2023/05/28 05:26:51;;;;;;;9.18;3.40;;;;;;;;;;5020483;28;20502;-65
2023/05/28 05:29:16;;;;;;;9.05;3.40;;;;;;;;;;5030133;28;20092;-66
2023/05/28 05:31:42;;;;;;;7.87;3.00;;;;;;;;;;5010583;28;20040;-66
2023/05/28 05:34:07;;;;;;;8.18;3.00;;;;;;;;;;5024583;28;20389;-66
2023/05/28 05:36:32;;;;;;;7.22;2.88;;;;;;;;;;5018634;28;20018;-66
2023/05/28 05:38:57;;;;;;;8.68;3.20;;;;;;;;;;5025357;28;20021;-65
2023/05/28 05:41:23;;;;;;;7.90;3.03;;;;;;;;;;5023177;28;20087;-66
2023/05/28 05:43:48;;;;;;;8.38;3.03;;;;;;;;;;5035229;28;20108;-66
2023/05/28 05:46:13;;;;;;;8.53;3.23;;;;;;;;;;5027416;28;20112;-66
2023/05/28 05:48:38;;;;;;;8.90;3.30;;;;;;;;;;5020335;28;20026;-66
2023/05/28 05:51:03;;;;;;;7.75;3.30;;;;;;;;;;5029177;28;20513;-66
2023/05/28 05:53:29;;;;;;;6.95;3.00;;;;;;;;;;5029238;28;20025;-66
2023/05/28 05:55:54;;;;;;;6.88;3.00;;;;;;;;;;5037889;28;20027;-66
2023/05/28 05:58:19;;;;;;;7.80;2.53;;;;;;;;;;5038507;28;20120;-67
2023/05/28 06:00:45;;;;;;;8.63;2.97;;;;;;;;;;5040259;28;20104;-66
2023/05/28 06:03:10;;;;;;;8.55;3.08;;;;;;;;;;5026272;28;20025;-66
2023/05/28 06:05:35;;;;;;;8.43;3.47;;;;;;;;;;5023865;28;20433;-66
2023/05/28 06:08:02;;;;;;;8.73;3.33;;;;;;;;;;5019074;28;20084;-67
2023/05/28 06:10:27;;;;;;;8.50;3.35;;;;;;;;;;5013412;28;20021;-67
2023/05/28 06:12:53;;;;;;;7.55;2.92;;;;;;;;;;5019714;28;20428;-67
2023/05/28 06:15:18;;;;;;;9.90;3.80;;;;;;;;;;5020805;28;20073;-66
2023/05/28 06:17:43;;;;;;;10.05;2.95;;;;;;;;;;5021169;28;20021;-67
2023/05/28 06:20:09;;;;;;;9.50;3.70;;;;;;;;;;5019237;28;20447;-67
2023/05/28 06:22:35;;;;;;;9.23;3.20;;;;;;;;;;5021052;28;20416;-66
2023/05/28 06:25:03;;;;;;;8.52;3.70;;;;;;;;;;5011221;28;20568;-66
2023/05/28 06:27:28;;;;;;;8.15;2.97;;;;;;;;;;5011881;28;20512;-66
2023/05/28 06:29:53;;;;;;;8.13;3.00;;;;;;;;;;5018614;28;20038;-66
2023/05/28 06:32:18;;;;;;;9.90;3.60;;;;;;;;;;5012586;28;20606;-67
2023/05/28 06:34:43;;;;;;;8.10;3.10;;;;;;;;;;5023594;28;20619;-64
2023/05/28 06:37:09;;;;;;;10.32;3.55;;;;;;;;;;5031402;28;20017;-66
2023/05/28 06:39:34;;;;;;;9.50;3.28;;;;;;;;;;5030725;28;20036;-66
2023/05/28 06:42:00;;;;;;;9.13;3.20;;;;;;;;;;5026212;28;20026;-65
2023/05/28 06:44:26;;;;;;;9.13;3.42;;;;;;;;;;5017789;28;20456;-65
2023/05/28 06:46:51;;;;;;;8.35;3.40;;;;;;;;;;5028819;28;20222;-66
2023/05/28 06:49:16;;;;;;;9.23;3.83;;;;;;;;;;5037651;28;20104;-66
2023/05/28 06:51:41;;;;;;;8.17;3.37;;;;;;;;;;5011850;28;20092;-65
2023/05/28 06:54:06;;;;;;;8.67;3.00;;;;;;;;;;5015572;28;20905;-65
2023/05/28 06:56:32;;;;;;;8.33;3.00;;;;;;;;;;5031652;28;20022;-64
2023/05/28 06:58:57;;;;;;;8.77;3.23;;;;;;;;;;5033000;28;20029;-66
2023/05/28 07:01:22;;;;;;;8.02;3.28;;;;;;;;;;5031390;28;20022;-66
2023/05/28 07:03:48;;;;;;;6.85;3.00;;;;;;;;;;5045725;28;20021;-65
2023/05/28 07:06:13;;;;;;;10.65;3.60;;;;;;;;;;5033195;28;20036;-65
2023/05/28 07:08:44;;;;;;;9.70;3.22;;;;;;;;;;5032060;28;20099;-66
2023/05/28 07:11:13;;;;;;;7.38;3.00;;;;;;;;;;5022115;28;20024;-65
2023/05/28 07:13:38;;;;;;;10.93;3.35;;;;;;;;;;5027921;28;20493;-64
2023/05/28 07:16:04;;;;;;;8.15;3.15;;;;;;;;;;5026171;28;20075;-64
2023/05/28 07:18:29;;;;;;;8.63;3.58;;;;;;;;;;5021982;28;20489;-64
2023/05/28 07:20:54;;;;;;;9.03;3.27;;;;;;;;;;5032251;28;20040;-64
2023/05/28 07:23:19;;;;;;;7.47;2.90;;;;;;;;;;5032147;28;21006;-65
2023/05/28 07:25:44;;;;;;;12.07;3.40;;;;;;;;;;5028706;28;20071;-64
2023/05/28 07:28:10;;;;;;;9.60;3.53;;;;;;;;;;5029357;28;20496;-64
2023/05/28 07:30:35;;;;;;;8.03;2.87;;;;;;;;;;5031633;28;20041;-64
2023/05/28 07:33:00;;;;;;;8.02;2.95;;;;;;;;;;5031973;28;20064;-65
2023/05/28 07:35:25;;;;;;;8.40;2.77;;;;;;;;;;5030842;28;20036;-64
2023/05/28 07:37:51;;;;;;;8.73;2.83;;;;;;;;;;5031839;28;20128;-64
2023/05/28 07:40:17;;;;;;;;;;;;;;;;;;5031910;28;20440;-65
2023/05/28 07:42:42;;;;;;;8.50;2.83;;;;;;;;;;5028444;28;20360;-65
2023/05/28 07:45:07;;;;;;;8.10;2.90;;;;;;;;;;5031843;28;20028;-64
2023/05/28 07:47:32;;;;;;;7.85;3.03;;;;;;;;;;5031664;28;20496;-65
2023/05/28 07:49:58;;;;;;;7.60;2.90;;;;;;;;;;5031293;28;20049;-65
2023/05/28 07:52:23;;;;;;;6.70;2.70;;;;;;;;;;5031509;28;20469;-65
2023/05/28 07:54:48;;;;;;;7.60;2.95;;;;;;;;;;5031518;28;20022;-65
2023/05/28 07:57:14;;;;;;;7.22;2.70;;;;;;;;;;5028049;28;20025;-65
2023/05/28 07:59:39;;;;;;;9.30;3.13;;;;;;;;;;5030881;28;20097;-65
2023/05/28 08:02:04;;;;;;;11.40;3.47;;;;;;;;;;5030546;28;20075;-64
2023/05/28 08:04:30;;;;;;;7.33;2.80;;;;;;;;;;5033366;28;20018;-66
2023/05/28 08:06:55;;;;;;;8.18;2.83;;;;;;;;;;5034587;28;20445;-65
2023/05/28 08:09:21;;;;;;;9.70;2.93;;;;;;;;;;5035751;28;20090;-65
2023/05/28 08:11:46;;;;;;;7.40;2.83;;;;;;;;;;5032176;28;20036;-65
2023/05/28 08:14:11;;;;;;;8.93;2.60;;;;;;;;;;5015077;28;20026;-64
2023/05/28 08:16:36;;;;;;;8.75;2.42;;;;;;;;;;5021651;28;20021;-65
2023/05/28 08:19:01;;;;;;;7.47;2.60;;;;;;;;;;5017059;28;20409;-65
2023/05/28 08:21:27;;;;;;;7.03;2.53;;;;;;;;;;5030944;28;20022;-65
2023/05/28 08:23:54;;;;;;;7.20;2.40;;;;;;;;;;5031715;28;20032;-65
2023/05/28 08:26:19;;;;;;;5.70;2.30;;;;;;;;;;5031251;28;20481;-65
2023/05/28 08:28:45;;;;;;;7.07;2.30;;;;;;;;;;5030122;28;20040;-65
2023/05/28 08:31:10;;;;;;;6.05;2.22;;;;;;;;;;5031519;28;20021;-65
2023/05/28 08:33:35;;;;;;;6.57;2.47;;;;;;;;;;5027543;28;20048;-65
2023/05/28 08:36:01;;;;;;;7.80;2.38;;;;;;;;;;5029555;28;21021;-65
2023/05/28 08:38:27;;;;;;;6.35;2.33;;;;;;;;;;5028965;28;20013;-65
2023/05/28 08:40:55;;;;;;;6.18;2.05;;;;;;;;;;5024418;28;20021;-65
2023/05/28 08:43:21;;;;;;;7.05;2.28;;;;;;;;;;5029040;28;20018;-65
2023/05/28 08:45:46;;;;;;;5.78;2.00;;;;;;;;;;5030807;28;20359;-65
2023/05/28 08:48:12;;;;;;;6.53;2.10;;;;;;;;;;5030652;28;20130;-65
2023/05/28 08:50:40;;;;;;;6.43;2.05;;;;;;;;;;5030144;28;20024;-65
2023/05/28 08:53:07;;;;;;;7.80;2.40;;;;;;;;;;5030747;28;20033;-65
2023/05/28 08:55:32;;;;;;;5.93;2.30;;;;;;;;;;5025768;28;20087;-64
2023/05/28 08:57:57;;;;;;;7.03;2.10;;;;;;;;;;5030595;28;20501;-65
2023/05/28 09:00:23;;;;;;;6.53;2.40;;;;;;;;;;5028000;28;20036;-65
2023/05/28 09:02:49;;;;;;;7.20;2.50;;;;;;;;;;5031939;28;20021;-65
2023/05/28 09:05:14;;;;;;;7.28;2.30;;;;;;;;;;5025589;28;20130;-65
2023/05/28 09:07:39;;;;;;;6.43;2.10;;;;;;;;;;5031921;28;20404;-65
2023/05/28 09:10:05;;;;;;;6.32;2.42;;;;;;;;;;5029615;28;20080;-64
2023/05/28 09:12:30;;;;;;;9.05;2.40;;;;;;;;;;5028830;28;20027;-65
2023/05/28 09:14:55;;;;;;;6.67;2.37;;;;;;;;;;5030745;28;20040;-65
2023/05/28 09:17:34;;;;;;;6.93;1.97;;;;;;;;;;5030344;28;20804;-64
2023/05/28 09:20:04;;;;;;;6.45;2.30;;;;;;;;;;5029790;28;20022;-66
2023/05/28 09:22:30;;;;;;;5.72;2.00;;;;;;;;;;5027911;28;20109;-64
2023/05/28 09:24:55;;;;;;;6.78;2.20;;;;;;;;;;5029718;28;20045;-64
2023/05/28 09:27:21;;;;;;;10.07;2.47;;;;;;;;;;5030829;28;20021;-65
2023/05/28 09:29:47;;;;;;;6.35;2.05;;;;;;;;;;5026016;28;20083;-65
2023/05/28 09:32:16;;;;;;;6.67;2.10;;;;;;;;;;5029748;28;20037;-64
2023/05/28 09:34:45;;;;;;;7.15;2.22;;;;;;;;;;5010749;28;20619;-64
2023/05/28 09:37:10;;;;;;;5.85;2.38;;;;;;;;;;5011123;28;20029;-65
2023/05/28 09:39:35;;;;;;;6.83;2.20;;;;;;;;;;5014021;28;20416;-64
2023/05/28 09:42:05;;;;;;;6.50;2.13;;;;;;;;;;5031634;28;20021;-64
2023/05/28 09:44:31;;;;;;;5.38;1.80;;;;;;;;;;5031071;28;20051;-64
2023/05/28 09:46:56;;;;;;;6.93;1.90;;;;;;;;;;5029673;28;20107;-64
2023/05/28 09:49:21;;;;;;;9.90;2.23;;;;;;;;;;5028147;28;20496;-64
2023/05/28 09:51:48;;;;;;;6.10;1.90;;;;;;;;;;5031538;28;20014;-65
2023/05/28 09:54:14;;;;;;;6.00;2.05;;;;;;;;;;5031720;28;20434;-64
2023/05/28 09:56:40;;;;;;;7.88;1.80;;;;;;;;;;5033817;28;20018;-64
2023/05/28 09:59:07;;;;;;;4.80;2.00;;;;;;;;;;5033527;28;20116;-64
2023/05/28 10:01:40;;;;;;;5.95;2.20;;;;;;;;;;5028021;28;20377;-63
2023/05/28 10:04:09;;;;;;;6.40;1.90;;;;;;;;;;5033746;28;20072;-64
2023/05/28 10:06:35;;;;;;;6.72;2.00;;;;;;;;;;5033620;28;20454;-65
2023/05/28 10:09:01;;;;;;;6.45;2.28;;;;;;;;;;5031798;28;20109;-63
2023/05/28 10:11:28;;;;;;;6.40;2.15;;;;;;;;;;5033469;28;20101;-64
2023/05/28 10:13:56;;;;;;;5.05;2.05;;;;;;;;;;5033110;28;20026;-64
2023/05/28 10:16:22;;;;;;;6.00;2.10;;;;;;;;;;5033008;28;20018;-63
2023/05/28 10:18:47;;;;;;;7.28;2.10;;;;;;;;;;5027308;28;20010;-64
2023/05/28 10:21:15;;;;;;;6.07;2.17;;;;;;;;;;5030306;28;20064;-63
2023/05/28 10:23:41;;;;;;;5.78;2.08;;;;;;;;;;5033283;28;20502;-64
2023/05/28 10:26:07;;;;;;;5.85;2.17;;;;;;;;;;5034882;28;20448;-65
2023/05/28 10:28:32;;;;;;;6.57;2.10;;;;;;;;;;5033176;28;20013;-65
2023/05/28 10:31:05;;;;;;;6.03;1.87;;;;;;;;;;5033977;28;20041;-63
2023/05/28 10:33:31;;;;;;;6.05;2.03;;;;;;;;;;5033431;28;20026;-64
2023/05/28 10:35:58;;;;;;;7.33;2.30;;;;;;;;;;5022426;28;20418;-64
2023/05/28 10:38:23;;;;;;;7.60;1.98;;;;;;;;;;5032433;28;20025;-64
2023/05/28 10:40:49;;;;;;;7.82;2.15;;;;;;;;;;5033133;28;20032;-65
2023/05/28 10:43:32;;;;;;;6.23;2.10;;;;;;;;;;5033461;28;20393;-65
2023/05/28 10:45:57;;;;;;;6.43;2.00;;;;;;;;;;5032857;28;20428;-63
2023/05/28 10:48:23;;;;;;;10.02;2.13;;;;;;;;;;5032438;28;20025;-64
2023/05/28 10:50:58;;;;;;;7.47;2.17;;;;;;;;;;5027221;28;20026;-64
2023/05/28 10:53:24;;;;;;;6.38;2.10;;;;;;;;;;5032529;28;20461;-65
2023/05/28 10:55:50;;;;;;;9.15;2.25;;;;;;;;;;5031278;28;20064;-64
2023/05/28 10:58:27;;;;;;;8.15;2.33;;;;;;;;;;5032755;28;20075;-64
2023/05/28 11:00:59;;;;;;;6.35;2.00;;;;;;;;;;5033015;28;20149;-64
2023/05/28 11:03:40;;;;;;;6.50;2.45;;;;;;;;;;5032399;28;20393;-65
2023/05/28 11:06:07;;;;;;;7.07;2.10;;;;;;;;;;5023740;28;20014;-64
2023/05/28 11:08:32;;;;;;;6.95;2.30;;;;;;;;;;5031237;28;20064;-65
2023/05/28 11:10:58;;;;;;;6.50;2.10;;;;;;;;;;5031896;28;20611;-64
2023/05/28 11:13:25;;;;;;;;;;;;;;;;;;5033387;28;20166;-65
2023/05/28 11:15:50;;;;;;;6.22;2.13;;;;;;;;;;5031348;28;19913;-63
2023/05/28 11:18:15;;;;;;;5.83;1.93;;;;;;;;;;5032969;28;20021;-64
2023/05/28 11:20:40;;;;;;;5.97;2.10;;;;;;;;;;5032432;28;20056;-64
2023/05/28 11:23:13;;;;;;;5.80;2.20;;;;;;;;;;5030628;28;20024;-65
2023/05/28 11:25:41;;;;;;;5.88;1.75;;;;;;;;;;5024144;28;20048;-64
2023/05/28 11:28:06;;;;;;;8.20;2.00;;;;;;;;;;5023480;28;20080;-65
2023/05/28 11:30:32;;;;;;;6.47;2.37;;;;;;;;;;5017535;28;20645;-65
2023/05/28 11:33:01;;;;;;;5.22;2.08;;;;;;;;;;5026358;28;20657;-65
2023/05/28 11:35:26;;;;;;;5.32;1.90;;;;;;;;;;5031448;28;20022;-64
2023/05/28 11:37:52;;;;;;;6.38;2.22;;;;;;;;;;5032151;28;20021;-64
2023/05/28 11:40:18;;;;;;;7.03;1.95;;;;;;;;;;5031386;28;20022;-65
2023/05/28 11:42:44;;;;;;;5.97;1.75;;;;;;;;;;5022001;28;20036;-65
2023/05/28 11:45:11;;;;;;;6.50;2.17;;;;;;;;;;5028562;28;20108;-65
2023/05/28 11:47:36;;;;;;;5.47;2.05;;;;;;;;;;5024218;28;20021;-65
2023/05/28 11:50:09;;;;;;;5.60;2.05;;;;;;;;;;5031110;28;20377;-65
2023/05/28 11:52:34;;;;;;;5.88;2.00;;;;;;;;;;5032275;28;20021;-65
2023/05/28 11:55:01;;;;;;;5.73;2.07;;;;;;;;;;5032236;28;20033;-64
2023/05/28 11:57:28;;;;;;;6.32;2.20;;;;;;;;;;5028978;28;20416;-65
2023/05/28 11:59:54;;;;;;;7.72;2.35;;;;;;;;;;5028924;28;20022;-65
2023/05/28 12:02:19;;;;;;;;;;;;;;;;;;5031223;28;20024;-64
2023/05/28 12:05:01;;;;;;;5.90;2.20;;;;;;;;;;5026357;28;19987;-65
2023/05/28 12:07:29;;;;;;;7.10;2.50;;;;;;;;;;5031590;28;20024;-65
2023/05/28 12:10:08;;;;;;;6.63;2.10;;;;;;;;;;5031203;28;20409;-64
2023/05/28 12:12:34;;;;;;;6.03;2.10;;;;;;;;;;5031415;28;20017;-64
2023/05/28 12:15:04;;;;;;;8.65;2.05;;;;;;;;;;5028518;28;20121;-64
2023/05/28 12:17:36;;;;;;;5.40;1.77;;;;;;;;;;5030855;28;20020;-65
2023/05/28 12:20:03;;;;;;;5.53;2.20;;;;;;;;;;5028034;28;20017;-64
2023/05/28 12:22:28;;;;;;;8.70;2.15;;;;;;;;;;5019763;28;20088;-65
2023/05/28 12:24:54;;;;;;;5.75;2.20;;;;;;;;;;5021248;28;20018;-63
2023/05/28 12:27:20;;;;;;;7.45;2.13;;;;;;;;;;5030286;28;20052;-65
2023/05/28 12:29:45;;;;;;;5.05;1.98;;;;;;;;;;5026394;28;20026;-64
2023/05/28 12:32:10;;;;;;;6.45;2.08;;;;;;;;;;5022622;28;20024;-65
2023/05/28 12:34:36;;;;;;;6.50;1.95;;;;;;;;;;5032242;28;20045;-65
2023/05/28 12:37:01;;;;;;;5.55;2.05;;;;;;;;;;5032607;28;20029;-65
2023/05/28 12:39:27;;;;;;;7.23;2.10;;;;;;;;;;5021489;28;20492;-65
2023/05/28 12:41:52;;;;;;;4.85;1.85;;;;;;;;;;5026678;28;20088;-67
2023/05/28 12:44:17;;;;;;;5.90;1.97;;;;;;;;;;5018366;28;20022;-63
2023/05/28 12:46:42;;;;;;;6.63;1.93;;;;;;;;;;5021924;28;20116;-64
2023/05/28 12:49:07;;;;;;;5.40;1.67;;;;;;;;;;5024117;28;20021;-64
2023/05/28 12:51:32;;;;;;;7.00;1.73;;;;;;;;;;5020647;28;20054;-65
2023/05/28 12:54:00;;;;;;;5.57;1.93;;;;;;;;;;5016553;28;20102;-65
2023/05/28 12:56:26;;;;;;;6.10;2.05;;;;;;;;;;5020630;28;20074;-64
2023/05/28 12:58:51;;;;;;;5.50;1.85;;;;;;;;;;5024456;28;20014;-65
2023/05/28 13:01:17;;;;;;;5.38;1.88;;;;;;;;;;5022010;28;20100;-65
2023/05/28 13:03:42;;;;;;;5.87;2.07;;;;;;;;;;5015928;28;20241;-63
2023/05/28 13:06:07;;;;;;;5.07;2.10;;;;;;;;;;5026974;28;20080;-65
2023/05/28 13:08:33;;;;;;;7.00;2.15;;;;;;;;;;5023978;28;20056;-64
2023/05/28 13:10:58;;;;;;;6.03;1.83;;;;;;;;;;5027960;28;20028;-64
2023/05/28 13:13:23;;;;;;;7.63;2.05;;;;;;;;;;5023141;28;20017;-64
2023/05/28 13:15:48;;;;;;;6.57;1.77;;;;;;;;;;5020514;28;20038;-64
2023/05/28 13:18:14;;;;;;;5.03;1.87;;;;;;;;;;5027437;28;20373;-65
2023/05/28 13:20:40;;;;;;;5.45;2.10;;;;;;;;;;5017495;28;20026;-65
2023/05/28 13:23:05;;;;;;;6.00;2.10;;;;;;;;;;5022781;28;20156;-65
2023/05/28 13:25:30;;;;;;;6.80;2.10;;;;;;;;;;5028067;28;20112;-64
2023/05/28 13:27:55;;;;;;;6.57;2.37;;;;;;;;;;5024265;28;20018;-65
2023/05/28 13:30:21;;;;;;;5.33;1.77;;;;;;;;;;5024108;28;20017;-64
2023/05/28 13:32:46;;;;;;;6.83;2.13;;;;;;;;;;5033477;28;20061;-64
2023/05/28 13:35:11;;;;;;;5.47;1.90;;;;;;;;;;5024673;28;20563;-64
2023/05/28 13:37:37;;;;;;;6.35;2.10;;;;;;;;;;5023681;28;20123;-64
2023/05/28 13:40:07;;;;;;;6.07;2.20;;;;;;;;;;5030963;28;20097;-65
2023/05/28 13:42:33;;;;;;;7.03;2.22;;;;;;;;;;5035453;28;20101;-64
2023/05/28 13:44:58;;;;;;;4.90;2.03;;;;;;;;;;5024442;28;20126;-65
2023/05/28 13:47:23;;;;;;;5.13;1.87;;;;;;;;;;5034419;28;20534;-65
2023/05/28 13:49:48;;;;;;;6.77;2.07;;;;;;;;;;5021290;28;20030;-64
2023/05/28 13:52:13;;;;;;;6.60;2.20;;;;;;;;;;5021983;28;20101;-65
2023/05/28 13:54:40;;;;;;;6.43;2.30;;;;;;;;;;5016730;28;20064;-65
2023/05/28 13:57:06;;;;;;;7.00;2.30;;;;;;;;;;5014123;28;20450;-64
2023/05/28 13:59:31;;;;;;;6.57;2.30;;;;;;;;;;5020001;28;20104;-64
2023/05/28 14:01:57;;;;;;;5.85;2.17;;;;;;;;;;5022109;28;20040;-65
2023/05/28 14:04:22;;;;;;;5.27;1.90;;;;;;;;;;5015955;28;20032;-64
2023/05/28 14:06:47;;;;;;;6.70;2.33;;;;;;;;;;5017515;28;20489;-64
2023/05/28 14:09:13;;;;;;;6.20;2.17;;;;;;;;;;5018277;28;20531;-64
2023/05/28 14:11:38;;;;;;;5.97;2.15;;;;;;;;;;5025655;28;20029;-64
2023/05/28 14:14:03;;;;;;;7.10;1.87;;;;;;;;;;5035642;28;20017;-63
2023/05/28 14:16:28;;;;;;;7.47;2.20;;;;;;;;;;5021168;28;20032;-65
2023/05/28 14:18:53;;;;;;;6.60;2.08;;;;;;;;;;5020678;28;20028;-63
2023/05/28 14:21:19;;;;;;;7.17;2.10;;;;;;;;;;5023676;28;20025;-64
2023/05/28 14:23:45;;;;;;;7.10;2.25;;;;;;;;;;5023948;28;20013;-64
2023/05/28 14:26:10;;;;;;;7.10;1.92;;;;;;;;;;5024651;28;20516;-64
2023/05/28 14:28:35;;;;;;;6.73;1.97;;;;;;;;;;5023884;28;20041;-64
2023/05/28 14:31:01;;;;;;;8.00;2.43;;;;;;;;;;5017541;28;20084;-64
2023/05/28 14:33:28;;;;;;;6.07;1.97;;;;;;;;;;5024517;28;20021;-65